createdAt,value
2023-09-04T00:00:25.696Z,3.95
2023-09-04T00:02:53.597Z,4.50
2023-09-04T00:05:20.014Z,4.05
2023-09-04T00:07:46.616Z,4.07
2023-09-04T00:10:13.816Z,4.47
2023-09-04T00:12:44.061Z,3.80
2023-09-04T00:15:10.653Z,3.90
2023-09-04T00:17:37.125Z,5.65
2023-09-04T00:20:13.987Z,5.63
2023-09-04T00:22:40.481Z,3.67
2023-09-04T00:25:10.555Z,3.72
2023-09-04T00:27:37.010Z,4.13
2023-09-04T00:30:03.806Z,4.55
2023-09-04T00:32:39.706Z,4.07
2023-09-04T00:35:07.337Z,3.70
2023-09-04T00:37:45.529Z,3.83
2023-09-04T00:40:16.814Z,5.55
2023-09-04T00:42:46.077Z,3.67
2023-09-04T00:45:18.034Z,4.28
2023-09-04T00:47:49.058Z,3.63
2023-09-04T00:53:23.384Z,6.75
2023-09-04T00:55:51.859Z,3.67
2023-09-04T00:58:18.521Z,5.78
2023-09-04T01:00:45.616Z,3.93
2023-09-04T01:03:15.892Z,3.47
2023-09-04T01:05:42.469Z,4.20
2023-09-04T01:08:22.992Z,4.95
2023-09-04T01:11:28.703Z,3.72
2023-09-04T01:13:59.761Z,3.27
2023-09-04T01:16:27.072Z,3.38
2023-09-04T01:19:05.167Z,3.15
2023-09-04T01:21:39.043Z,3.80
2023-09-04T01:24:10.034Z,4.82
2023-09-04T01:27:02.271Z,4.03
2023-09-04T01:29:55.646Z,3.88
2023-09-04T01:32:52.677Z,3.53
2023-09-04T01:35:25.934Z,2.95
2023-09-04T01:37:53.792Z,4.45
2023-09-04T01:40:20.405Z,3.57
2023-09-04T01:42:52.038Z,2.90
2023-09-04T01:45:18.768Z,3.75
2023-09-04T01:47:47.536Z,4.80
2023-09-04T01:50:14.657Z,4.10
2023-09-04T01:52:44.161Z,3.63
2023-09-04T01:55:16.385Z,3.30
2023-09-04T01:57:45.787Z,3.78
2023-09-04T02:00:20.959Z,3.75
2023-09-04T02:02:47.460Z,4.55
2023-09-04T02:05:14.063Z,3.30
2023-09-04T02:10:30.463Z,4.07
2023-09-04T02:12:57.268Z,3.83
2023-09-04T02:15:27.936Z,3.40
2023-09-04T02:17:57.445Z,3.53
2023-09-04T02:20:28.342Z,6.03
2023-09-04T02:22:57.219Z,3.75
2023-09-04T02:25:25.348Z,4.00
2023-09-04T02:27:55.744Z,3.60
2023-09-04T02:30:22.292Z,3.93
2023-09-04T02:32:48.914Z,3.83
2023-09-04T02:35:16.498Z,4.38
2023-09-04T02:37:47.487Z,3.60
2023-09-04T02:40:14.025Z,4.50
2023-09-04T02:42:52.434Z,4.20
2023-09-04T02:45:28.764Z,3.90
2023-09-04T02:47:55.662Z,4.38
2023-09-04T02:50:24.847Z,4.45
2023-09-04T02:52:53.737Z,4.70
2023-09-04T02:55:20.276Z,4.53
2023-09-04T02:57:46.732Z,4.25
2023-09-04T03:00:19.142Z,5.55
2023-09-04T03:02:45.690Z,5.13
2023-09-04T03:05:13.741Z,4.20
2023-09-04T03:07:43.165Z,4.57
2023-09-04T03:10:09.888Z,4.68
2023-09-04T03:12:39.476Z,4.25
2023-09-04T03:15:09.295Z,6.40
2023-09-04T03:17:48.233Z,7.00
2023-09-04T03:20:23.118Z,4.63
2023-09-04T03:22:53.517Z,4.25
2023-09-04T03:25:27.588Z,4.00
2023-09-04T03:27:53.991Z,4.07
2023-09-04T03:30:20.406Z,4.57
2023-09-04T03:32:50.084Z,4.23
2023-09-04T03:35:19.923Z,4.38
2023-09-04T03:37:46.489Z,4.70
2023-09-04T03:40:23.835Z,6.38
2023-09-04T03:42:53.115Z,4.50
2023-09-04T03:45:22.689Z,3.93
2023-09-04T03:47:50.157Z,4.22
2023-09-04T03:50:17.825Z,5.05
2023-09-04T03:52:47.730Z,5.28
2023-09-04T03:55:14.208Z,4.05
2023-09-04T03:57:50.022Z,4.97
2023-09-04T04:00:20.254Z,4.47
2023-09-04T04:02:51.747Z,4.85
2023-09-04T04:05:19.150Z,5.22
2023-09-04T04:07:50.517Z,4.32
2023-09-04T04:10:17.501Z,4.60
2023-09-04T04:12:44.136Z,6.10
2023-09-04T04:15:13.652Z,7.60
2023-09-04T04:17:41.574Z,7.38
2023-09-04T04:20:17.245Z,4.75
2023-09-04T04:22:43.747Z,5.80
2023-09-04T04:25:14.506Z,5.68
2023-09-04T04:27:46.616Z,5.30
2023-09-04T04:30:16.682Z,6.95
2023-09-04T04:32:50.885Z,4.88
2023-09-04T04:35:22.213Z,5.40
2023-09-04T04:37:51.719Z,5.43
2023-09-04T04:40:27.154Z,5.00
2023-09-04T04:42:58.047Z,5.40
2023-09-04T04:45:30.912Z,5.28
2023-09-04T04:48:15.811Z,4.20
2023-09-04T04:50:42.302Z,4.32
2023-09-04T04:55:49.463Z,7.80
2023-09-04T04:58:21.480Z,6.28
2023-09-04T05:00:48.392Z,4.87
2023-09-04T05:03:17.865Z,4.25
2023-09-04T05:05:47.892Z,5.85
2023-09-04T05:08:14.924Z,4.22
2023-09-04T05:10:45.027Z,4.95
2023-09-04T05:13:11.797Z,4.73
2023-09-04T05:15:38.556Z,4.15
2023-09-04T05:18:09.001Z,4.32
2023-09-04T05:20:37.856Z,4.47
2023-09-04T05:23:06.760Z,4.30
2023-09-04T05:25:33.484Z,3.43
2023-09-04T05:28:04.031Z,4.57
2023-09-04T05:30:34.758Z,3.83
2023-09-04T05:33:01.185Z,4.57
2023-09-04T05:35:27.649Z,3.35
2023-09-04T05:37:56.472Z,4.20
2023-09-04T05:40:26.252Z,3.78
2023-09-04T05:42:55.514Z,3.95
2023-09-04T05:45:28.783Z,3.97
2023-09-04T05:47:55.271Z,5.05
2023-09-04T05:50:29.961Z,3.97
2023-09-04T05:52:56.347Z,4.65
2023-09-04T05:55:28.666Z,3.65
2023-09-04T05:57:55.126Z,5.30
2023-09-04T06:00:22.762Z,3.92
2023-09-04T06:02:58.254Z,4.87
2023-09-04T06:05:27.824Z,4.07
2023-09-04T06:08:01.114Z,4.20
2023-09-04T06:10:27.647Z,4.38
2023-09-04T06:12:58.270Z,6.18
2023-09-04T06:15:24.615Z,6.10
2023-09-04T06:17:51.050Z,6.15
2023-09-04T06:20:21.572Z,5.20
2023-09-04T06:22:50.968Z,6.65
2023-09-04T06:25:24.587Z,5.05
2023-09-04T06:27:51.778Z,5.70
2023-09-04T06:30:18.308Z,6.38
2023-09-04T06:32:48.274Z,5.65
2023-09-04T06:35:17.785Z,6.88
2023-09-04T06:37:47.832Z,7.53
2023-09-04T06:40:18.345Z,5.43
2023-09-04T06:42:44.819Z,5.75
2023-09-04T06:45:14.781Z,5.88
2023-09-04T06:47:44.120Z,5.07
2023-09-04T06:52:52.502Z,9.13
2023-09-04T06:55:21.919Z,5.40
2023-09-04T06:57:52.110Z,6.45
2023-09-04T07:00:23.158Z,8.90
2023-09-04T07:02:52.809Z,5.97
2023-09-04T07:05:26.992Z,5.97
2023-09-04T07:07:53.577Z,6.72
2023-09-04T07:10:20.207Z,4.93
2023-09-04T07:12:50.916Z,5.13
2023-09-04T07:15:21.045Z,5.28
2023-09-04T07:18:02.265Z,6.87
2023-09-04T07:20:34.940Z,5.55
2023-09-04T07:23:14.849Z,7.45
2023-09-04T07:25:46.937Z,6.10
2023-09-04T07:28:16.348Z,6.22
2023-09-04T07:30:45.881Z,7.40
2023-09-04T07:33:12.383Z,6.80
2023-09-04T07:35:54.980Z,6.30
2023-09-04T07:38:24.382Z,6.00
2023-09-04T07:41:03.081Z,6.10
2023-09-04T07:43:33.028Z,10.57
2023-09-04T07:46:00.378Z,9.95
2023-09-04T07:48:29.917Z,7.47
2023-09-04T07:50:58.185Z,6.38
2023-09-04T07:53:25.658Z,6.05
2023-09-04T07:55:55.160Z,6.83
2023-09-04T07:58:23.808Z,7.50
2023-09-04T08:00:56.653Z,6.93
2023-09-04T08:03:23.684Z,6.20
2023-09-04T08:05:50.782Z,6.32
2023-09-04T08:08:20.450Z,5.47
2023-09-04T08:10:50.734Z,6.85
2023-09-04T08:13:22.464Z,5.88
2023-09-04T08:15:52.293Z,6.00
2023-09-04T08:18:20.085Z,6.80
2023-09-04T08:20:53.050Z,7.30
2023-09-04T08:23:19.460Z,6.95
2023-09-04T08:25:54.942Z,6.60
2023-09-04T08:28:21.415Z,6.38
2023-09-04T08:31:01.275Z,12.63
2023-09-04T08:33:33.083Z,6.40
2023-09-04T08:36:03.288Z,8.20
2023-09-04T08:38:33.272Z,6.25
2023-09-04T08:41:08.956Z,5.95
2023-09-04T08:43:45.187Z,9.27
2023-09-04T08:46:12.014Z,6.23
2023-09-04T08:48:40.982Z,6.85
2023-09-04T08:51:11.014Z,6.38
2023-09-04T08:53:41.740Z,6.47
2023-09-04T08:56:12.143Z,6.22
2023-09-04T08:58:41.281Z,6.20
2023-09-04T09:01:09.049Z,5.97
2023-09-04T09:03:36.461Z,5.75
2023-09-04T09:06:03.382Z,6.85
2023-09-04T09:08:31.953Z,5.72
2023-09-04T09:11:02.428Z,7.10
2023-09-04T09:13:29.285Z,5.75
2023-09-04T09:16:00.965Z,6.45
2023-09-04T09:18:44.212Z,5.78
2023-09-04T09:21:28.488Z,6.65
2023-09-04T09:24:06.881Z,6.97
2023-09-04T09:26:33.563Z,5.38
2023-09-04T09:29:04.050Z,6.07
2023-09-04T09:31:31.177Z,5.85
2023-09-04T09:33:58.242Z,5.32
2023-09-04T09:36:31.542Z,5.60
2023-09-04T09:38:58.123Z,6.43
2023-09-04T09:44:11.504Z,5.25
2023-09-04T09:46:43.001Z,7.22
2023-09-04T09:49:12.683Z,6.70
2023-09-04T09:51:41.891Z,5.22
2023-09-04T09:54:17.254Z,5.93
2023-09-04T09:56:44.058Z,5.10
2023-09-04T09:59:13.445Z,7.25
2023-09-04T10:01:41.211Z,5.97
2023-09-04T10:04:08.249Z,4.55
2023-09-04T10:06:39.560Z,4.70
2023-09-04T10:09:13.442Z,4.82
2023-09-04T10:11:45.762Z,4.85
2023-09-04T10:14:28.908Z,4.97
2023-09-04T10:17:09.891Z,4.50
2023-09-04T10:19:41.135Z,4.82
2023-09-04T10:22:21.502Z,5.07
2023-09-04T10:25:24.377Z,4.10
2023-09-04T10:28:43.324Z,3.47
2023-09-04T10:31:15.615Z,4.05
2023-09-04T10:33:45.279Z,4.28
2023-09-04T10:38:56.910Z,4.22
2023-09-04T10:41:31.126Z,3.57
2023-09-04T10:44:04.708Z,5.55
2023-09-04T10:46:31.509Z,3.67
2023-09-04T10:48:58.101Z,3.22
2023-09-04T10:51:38.175Z,2.80
2023-09-04T10:54:28.615Z,2.57
2023-09-04T10:57:00.291Z,4.25
2023-09-04T10:59:36.246Z,2.60
2023-09-04T11:02:33.357Z,2.53
2023-09-04T11:05:02.001Z,4.43
2023-09-04T11:07:55.185Z,6.23
2023-09-04T11:10:44.481Z,5.13
2023-09-04T11:13:11.188Z,4.45
2023-09-04T11:15:40.817Z,5.45
2023-09-04T11:18:16.708Z,3.78
2023-09-04T11:20:54.747Z,2.70
2023-09-04T11:23:36.160Z,2.65
2023-09-04T11:26:07.126Z,3.72
2023-09-04T11:28:33.656Z,3.78
2023-09-04T11:31:00.509Z,3.72
2023-09-04T11:33:37.234Z,2.63
2023-09-04T11:39:08.231Z,2.80
2023-09-04T11:41:40.735Z,2.55
2023-09-04T11:44:08.123Z,3.00
2023-09-04T11:46:44.394Z,2.40
2023-09-04T11:49:11.033Z,4.10
2023-09-04T11:51:38.603Z,3.97
2023-09-04T11:54:08.190Z,2.80
2023-09-04T11:56:35.503Z,3.13
2023-09-04T11:59:06.868Z,2.97
2023-09-04T12:01:37.047Z,3.08
2023-09-04T12:04:07.533Z,3.70
2023-09-04T12:06:37.086Z,4.88
2023-09-04T12:09:09.543Z,3.50
2023-09-04T12:11:38.948Z,3.00
2023-09-04T12:14:16.861Z,2.95
2023-09-04T12:16:45.322Z,3.00
2023-09-04T12:19:21.421Z,4.05
2023-09-04T12:21:47.923Z,3.00
2023-09-04T12:24:24.021Z,2.47
2023-09-04T12:26:56.721Z,3.75
2023-09-04T12:29:25.869Z,4.38
2023-09-04T12:31:52.544Z,2.67
2023-09-04T12:34:29.581Z,2.55
2023-09-04T12:36:56.767Z,2.60
2023-09-04T12:39:32.456Z,3.97
2023-09-04T12:42:06.709Z,2.63
2023-09-04T12:44:36.324Z,2.72
2023-09-04T12:47:05.198Z,2.78
2023-09-04T12:49:37.587Z,2.43
2023-09-04T12:52:04.430Z,3.50
2023-09-04T12:54:35.937Z,2.65
2023-09-04T12:57:05.451Z,2.67
2023-09-04T12:59:38.261Z,2.20
2023-09-04T13:02:05.416Z,3.17
2023-09-04T13:04:31.909Z,5.55
2023-09-04T13:07:07.379Z,2.53
2023-09-04T13:09:33.829Z,2.13
2023-09-04T13:12:09.410Z,2.72
2023-09-04T13:14:37.631Z,5.00
2023-09-04T13:17:07.107Z,3.13
2023-09-04T13:19:34.073Z,3.55
2023-09-04T13:22:08.381Z,2.20
2023-09-04T13:24:37.733Z,3.05
2023-09-04T13:27:05.661Z,3.57
2023-09-04T13:29:33.493Z,4.40
2023-09-04T13:31:59.878Z,2.38
2023-09-04T13:34:26.365Z,3.30
2023-09-04T13:36:56.752Z,2.17
2023-09-04T13:39:26.381Z,2.00
2023-09-04T13:41:54.503Z,2.20
2023-09-04T13:44:27.446Z,2.13
2023-09-04T13:46:53.938Z,2.10
2023-09-04T13:49:20.503Z,2.25
2023-09-04T13:51:49.243Z,3.23
2023-09-04T13:54:15.681Z,2.78
2023-09-04T13:56:45.063Z,3.40
2023-09-04T13:59:14.403Z,2.40
2023-09-04T14:01:41.001Z,3.55
2023-09-04T14:04:10.705Z,2.20
2023-09-04T14:06:39.929Z,2.40
2023-09-04T14:09:14.159Z,3.10
2023-09-04T14:11:43.870Z,2.92
2023-09-04T14:14:10.398Z,3.28
2023-09-04T14:16:40.027Z,2.57
2023-09-04T14:19:11.391Z,2.47
2023-09-04T14:21:47.708Z,2.97
2023-09-04T14:24:26.977Z,3.20
2023-09-04T14:26:53.762Z,2.45
2023-09-04T14:29:34.439Z,2.37
2023-09-04T14:34:53.167Z,2.72
2023-09-04T14:37:20.349Z,2.47
2023-09-04T14:39:49.192Z,3.90
2023-09-04T14:42:18.828Z,3.87
2023-09-04T14:44:45.857Z,2.83
2023-09-04T14:47:15.637Z,2.70
2023-09-04T14:49:42.074Z,3.92
2023-09-04T14:52:12.223Z,2.45
2023-09-04T14:54:39.743Z,2.93
2023-09-04T14:57:06.249Z,2.40
2023-09-04T14:59:32.873Z,2.60
2023-09-04T15:02:01.916Z,3.22
2023-09-04T15:04:31.757Z,3.05
2023-09-04T15:06:58.490Z,2.83
2023-09-04T15:09:24.921Z,3.60
2023-09-04T15:11:54.770Z,4.70
2023-09-04T15:14:21.247Z,2.88
2023-09-04T15:16:51.870Z,2.67
2023-09-04T15:19:18.326Z,4.80
2023-09-04T15:21:44.756Z,2.30
2023-09-04T15:24:20.258Z,2.55
2023-09-04T15:26:46.728Z,4.63
2023-09-04T15:29:17.772Z,2.55
2023-09-04T15:31:46.959Z,3.23
2023-09-04T15:34:21.153Z,2.22
2023-09-04T15:36:47.641Z,2.10
2023-09-04T15:39:14.191Z,3.15
2023-09-04T15:41:48.955Z,2.80
2023-09-04T15:44:15.493Z,2.33
2023-09-04T15:46:48.548Z,3.35
2023-09-04T15:49:19.154Z,2.42
2023-09-04T15:51:50.857Z,4.70
2023-09-04T15:54:17.444Z,2.70
2023-09-04T15:56:43.911Z,2.57
2023-09-04T15:59:12.952Z,2.30
2023-09-04T16:01:42.279Z,3.22
2023-09-04T16:04:09.080Z,2.35
2023-09-04T16:06:47.446Z,5.50
2023-09-04T16:09:14.218Z,5.00
2023-09-04T16:11:47.403Z,4.18
2023-09-04T16:14:14.424Z,2.55
2023-09-04T16:16:43.746Z,3.90
2023-09-04T16:19:10.247Z,2.63
2023-09-04T16:21:37.368Z,2.30
2023-09-04T16:24:15.950Z,2.60
2023-09-04T16:32:09.758Z,2.85
2023-09-04T16:34:39.457Z,2.90
2023-09-04T16:37:06.035Z,2.65
2023-09-04T16:39:35.775Z,2.58
2023-09-04T16:42:02.199Z,3.40
2023-09-04T16:44:28.650Z,3.22
2023-09-04T16:49:41.427Z,3.70
2023-09-04T16:52:07.933Z,4.53
2023-09-04T16:54:34.469Z,3.20
2023-09-04T16:57:05.595Z,4.07
2023-09-04T16:59:32.101Z,3.93
2023-09-04T17:01:58.586Z,3.85
2023-09-04T17:07:15.979Z,2.90
2023-09-04T17:09:42.421Z,2.75
2023-09-04T17:12:22.412Z,2.83
2023-09-04T17:14:54.974Z,3.03
2023-09-04T17:17:21.510Z,4.35
2023-09-04T17:19:47.999Z,2.70
2023-09-04T17:22:18.802Z,6.32
2023-09-04T17:24:45.309Z,3.57
2023-09-04T17:27:11.742Z,4.90
2023-09-04T17:29:41.248Z,4.15
2023-09-04T17:32:10.828Z,5.15
2023-09-04T17:34:43.084Z,5.20
2023-09-04T17:37:12.508Z,3.27
2023-09-04T17:39:38.918Z,4.88
2023-09-04T17:42:13.821Z,5.72
2023-09-04T17:44:40.279Z,3.88
2023-09-04T17:47:11.770Z,2.60
2023-09-04T17:49:41.158Z,2.97
2023-09-04T17:52:08.012Z,2.83
2023-09-04T17:54:37.737Z,3.13
2023-09-04T17:57:08.035Z,4.60
2023-09-04T17:59:35.443Z,4.90
2023-09-04T18:02:04.307Z,3.60
2023-09-04T18:04:30.773Z,3.75
2023-09-04T18:06:59.918Z,3.88
2023-09-04T18:09:30.031Z,5.07
2023-09-04T18:11:56.699Z,8.43
2023-09-04T18:14:26.656Z,3.47
2023-09-04T18:16:55.885Z,3.85
2023-09-04T18:19:28.849Z,4.00
2023-09-04T18:21:58.564Z,4.75
2023-09-04T18:24:38.322Z,6.75
2023-09-04T18:27:05.260Z,6.03
2023-09-04T18:29:41.738Z,4.80
2023-09-04T18:32:08.491Z,4.35
2023-09-04T18:34:57.078Z,4.70
2023-09-04T18:37:26.667Z,5.03
2023-09-04T18:39:53.892Z,4.53
2023-09-04T18:42:21.696Z,4.72
2023-09-04T18:44:51.341Z,5.07
2023-09-04T18:47:29.662Z,4.78
2023-09-04T18:49:56.165Z,4.97
2023-09-04T18:52:27.011Z,5.40
2023-09-04T18:54:54.669Z,6.22
2023-09-04T18:57:21.415Z,4.88
2023-09-04T18:59:52.065Z,5.22
2023-09-04T19:02:19.447Z,4.78
2023-09-04T19:04:46.029Z,5.63
2023-09-04T19:07:15.082Z,4.47
2023-09-04T19:09:44.614Z,4.75
2023-09-04T19:12:15.329Z,5.07
2023-09-04T19:14:44.668Z,4.97
2023-09-04T19:17:11.136Z,5.73
2023-09-04T19:19:38.623Z,5.38
2023-09-04T19:22:07.588Z,4.63
2023-09-04T19:24:34.168Z,4.65
2023-09-04T19:27:01.022Z,5.28
2023-09-04T19:29:27.413Z,5.93
2023-09-04T19:31:54.326Z,4.90
2023-09-04T19:34:20.821Z,5.18
2023-09-04T19:36:51.776Z,4.28
2023-09-04T19:39:18.218Z,5.00
2023-09-04T19:41:44.665Z,4.40
2023-09-04T19:44:15.738Z,5.47
2023-09-04T19:46:42.229Z,4.80
2023-09-04T19:49:08.742Z,5.10
2023-09-04T19:51:40.125Z,5.07
2023-09-04T19:54:06.757Z,4.43
2023-09-04T19:56:33.205Z,5.70
2023-09-04T19:59:03.814Z,4.72
2023-09-04T20:01:30.432Z,5.43
2023-09-04T20:03:56.953Z,5.15
2023-09-04T20:06:27.545Z,4.70
2023-09-04T20:08:55.366Z,4.38
2023-09-04T20:11:21.835Z,4.60
2023-09-04T20:13:51.350Z,4.50
2023-09-04T20:16:20.899Z,5.82
2023-09-04T20:18:50.121Z,5.80
2023-09-04T20:21:16.602Z,7.00
2023-09-04T20:23:43.678Z,3.97
2023-09-04T20:26:12.216Z,6.90
2023-09-04T20:28:44.486Z,4.18
2023-09-04T20:31:11.246Z,4.40
2023-09-04T20:33:48.293Z,4.50
2023-09-04T20:36:14.716Z,4.43
2023-09-04T20:38:49.984Z,4.22
2023-09-04T20:41:26.410Z,4.68
2023-09-04T20:43:52.852Z,5.50
2023-09-04T20:46:19.841Z,3.83
2023-09-04T20:48:49.416Z,3.90
2023-09-04T20:51:19.120Z,3.67
2023-09-04T20:53:53.258Z,3.72
2023-09-04T20:56:19.750Z,3.93
2023-09-04T20:58:46.327Z,3.78
2023-09-04T21:03:59.920Z,3.58
2023-09-04T21:06:30.224Z,3.15
2023-09-04T21:09:02.452Z,3.53
2023-09-04T21:11:28.982Z,3.63
2023-09-04T21:14:14.138Z,3.88
2023-09-04T21:26:05.487Z,3.40
2023-09-04T21:28:52.613Z,3.40
2023-09-04T21:31:39.451Z,3.42
2023-09-04T21:34:24.897Z,3.83
2023-09-04T21:37:09.688Z,3.40
2023-09-04T21:40:04.276Z,4.75
2023-09-04T21:42:49.540Z,4.03
2023-09-04T21:45:37.155Z,4.18
2023-09-04T21:48:22.552Z,3.42
2023-09-04T21:51:10.387Z,3.20
2023-09-04T21:53:55.306Z,3.40
2023-09-04T21:56:44.301Z,4.50
2023-09-04T21:59:29.545Z,3.40
2023-09-04T22:02:17.596Z,3.22
2023-09-04T22:05:03.229Z,3.70
2023-09-04T22:07:48.438Z,3.60
2023-09-04T22:10:33.682Z,3.95
2023-09-04T22:13:21.849Z,5.57
2023-09-04T22:16:09.016Z,3.67
2023-09-04T22:19:08.410Z,3.33
2023-09-04T22:21:53.262Z,3.72
2023-09-04T22:24:42.700Z,3.85
2023-09-04T22:27:32.112Z,3.72
2023-09-04T22:30:23.394Z,3.70
2023-09-04T22:33:14.906Z,3.60
2023-09-04T22:35:59.758Z,4.30
2023-09-04T22:38:47.480Z,4.47
2023-09-04T22:41:32.614Z,4.00
2023-09-04T22:44:18.473Z,4.15
2023-09-04T22:47:03.461Z,4.07
2023-09-04T22:49:48.263Z,7.18
2023-09-04T22:52:37.142Z,4.18
2023-09-04T22:55:25.038Z,3.40
2023-09-04T22:58:10.009Z,5.80
2023-09-04T23:01:00.822Z,4.03
2023-09-04T23:03:49.389Z,4.32
2023-09-04T23:06:34.489Z,4.60
2023-09-04T23:09:24.792Z,6.25
2023-09-04T23:12:14.423Z,4.10
2023-09-04T23:14:59.356Z,4.20
2023-09-04T23:17:46.525Z,3.78
2023-09-04T23:20:33.514Z,4.43
2023-09-04T23:22:59.932Z,4.25
2023-09-04T23:25:35.261Z,3.92
2023-09-04T23:28:06.565Z,3.73
2023-09-04T23:30:44.117Z,5.75
2023-09-04T23:33:13.339Z,5.45
2023-09-04T23:36:02.377Z,3.55
2023-09-04T23:38:44.149Z,3.80
2023-09-04T23:41:30.404Z,3.50
2023-09-04T23:44:15.400Z,3.13
2023-09-04T23:46:41.829Z,5.43
2023-09-04T23:49:14.898Z,2.83
2023-09-04T23:51:41.365Z,5.82
2023-09-04T23:54:11.048Z,4.00
2023-09-04T23:56:40.501Z,3.42
2023-09-04T23:59:14.686Z,3.80
